sensor_id;sensor_type;location;lat;lon;timestamp;P1;durP1;ratioP1;P2;durP2;ratioP2
46875;SDS011;32866;50.160;14.768;2022-09-27T00:01:02;5.97;;;3.85;;
46875;SDS011;32866;50.160;14.768;2022-09-27T00:03:29;7.53;;;3.87;;
46875;SDS011;32866;50.160;14.768;2022-09-27T00:08:30;5.87;;;3.53;;
46875;SDS011;32866;50.160;14.768;2022-09-27T00:11:02;4.40;;;3.67;;
46875;SDS011;32866;50.160;14.768;2022-09-27T00:13:29;7.47;;;4.77;;
46875;SDS011;32866;50.160;14.768;2022-09-27T00:15:59;5.20;;;3.50;;
46875;SDS011;32866;50.160;14.768;2022-09-27T00:18:25;6.53;;;3.77;;
46875;SDS011;32866;50.160;14.768;2022-09-27T00:20:51;7.20;;;3.75;;
46875;SDS011;32866;50.160;14.768;2022-09-27T00:23:17;5.53;;;2.97;;
46875;SDS011;32866;50.160;14.768;2022-09-27T00:25:53;4.05;;;3.53;;
46875;SDS011;32866;50.160;14.768;2022-09-27T00:28:21;4.83;;;3.47;;
46875;SDS011;32866;50.160;14.768;2022-09-27T00:30:47;5.22;;;2.97;;
46875;SDS011;32866;50.160;14.768;2022-09-27T00:33:13;3.58;;;2.83;;
46875;SDS011;32866;50.160;14.768;2022-09-27T00:35:38;4.95;;;3.38;;
46875;SDS011;32866;50.160;14.768;2022-09-27T00:38:04;4.22;;;2.80;;
46875;SDS011;32866;50.160;14.768;2022-09-27T00:40:30;3.47;;;2.78;;
46875;SDS011;32866;50.160;14.768;2022-09-27T00:42:55;4.03;;;2.50;;
46875;SDS011;32866;50.160;14.768;2022-09-27T00:45:21;3.50;;;2.63;;
46875;SDS011;32866;50.160;14.768;2022-09-27T00:48:04;2.83;;;2.53;;
46875;SDS011;32866;50.160;14.768;2022-09-27T00:50:31;4.60;;;2.87;;
46875;SDS011;32866;50.160;14.768;2022-09-27T00:55:48;2.57;;;2.20;;
46875;SDS011;32866;50.160;14.768;2022-09-27T00:58:19;4.30;;;2.30;;
46875;SDS011;32866;50.160;14.768;2022-09-27T01:00:50;3.13;;;2.40;;
46875;SDS011;32866;50.160;14.768;2022-09-27T01:03:21;3.20;;;2.30;;
46875;SDS011;32866;50.160;14.768;2022-09-27T01:05:53;2.63;;;2.00;;
46875;SDS011;32866;50.160;14.768;2022-09-27T01:08:19;2.50;;;1.80;;
46875;SDS011;32866;50.160;14.768;2022-09-27T01:10:47;2.28;;;1.85;;
46875;SDS011;32866;50.160;14.768;2022-09-27T01:13:28;3.13;;;1.90;;
46875;SDS011;32866;50.160;14.768;2022-09-27T01:16:00;3.33;;;2.30;;
46875;SDS011;32866;50.160;14.768;2022-09-27T01:19:07;3.10;;;2.37;;
46875;SDS011;32866;50.160;14.768;2022-09-27T01:35:04;2.50;;;1.60;;
46875;SDS011;32866;50.160;14.768;2022-09-27T01:42:44;2.60;;;2.00;;
46875;SDS011;32866;50.160;14.768;2022-09-27T01:47:55;2.13;;;1.93;;
46875;SDS011;32866;50.160;14.768;2022-09-27T01:50:32;2.13;;;1.73;;
46875;SDS011;32866;50.160;14.768;2022-09-27T01:55:42;2.10;;;1.67;;
46875;SDS011;32866;50.160;14.768;2022-09-27T02:00:41;1.97;;;1.43;;
46875;SDS011;32866;50.160;14.768;2022-09-27T02:03:12;4.37;;;2.00;;
46875;SDS011;32866;50.160;14.768;2022-09-27T02:05:43;2.60;;;2.07;;
46875;SDS011;32866;50.160;14.768;2022-09-27T02:08:20;3.33;;;2.43;;
46875;SDS011;32866;50.160;14.768;2022-09-27T02:10:52;3.30;;;2.70;;
46875;SDS011;32866;50.160;14.768;2022-09-27T02:21:20;5.33;;;2.60;;
46875;SDS011;32866;50.160;14.768;2022-09-27T02:23:55;3.53;;;2.80;;
46875;SDS011;32866;50.160;14.768;2022-09-27T02:26:32;3.13;;;2.13;;
46875;SDS011;32866;50.160;14.768;2022-09-27T02:29:13;4.10;;;2.03;;
46875;SDS011;32866;50.160;14.768;2022-09-27T02:31:45;3.87;;;2.93;;
46875;SDS011;32866;50.160;14.768;2022-09-27T02:36:50;4.07;;;2.37;;
46875;SDS011;32866;50.160;14.768;2022-09-27T02:39:17;4.20;;;2.63;;
46875;SDS011;32866;50.160;14.768;2022-09-27T02:41:43;3.50;;;2.50;;
46875;SDS011;32866;50.160;14.768;2022-09-27T02:44:16;3.97;;;2.83;;
46875;SDS011;32866;50.160;14.768;2022-09-27T02:51:57;3.00;;;2.30;;
46875;SDS011;32866;50.160;14.768;2022-09-27T02:54:43;3.70;;;2.47;;
46875;SDS011;32866;50.160;14.768;2022-09-27T03:00:32;3.93;;;2.57;;
46875;SDS011;32866;50.160;14.768;2022-09-27T03:03:12;4.03;;;2.37;;
46875;SDS011;32866;50.160;14.768;2022-09-27T03:05:50;5.67;;;2.10;;
46875;SDS011;32866;50.160;14.768;2022-09-27T03:08:18;3.83;;;2.90;;
46875;SDS011;32866;50.160;14.768;2022-09-27T03:10:44;4.05;;;2.33;;
46875;SDS011;32866;50.160;14.768;2022-09-27T03:13:10;3.63;;;2.63;;
46875;SDS011;32866;50.160;14.768;2022-09-27T03:18:01;2.63;;;2.20;;
46875;SDS011;32866;50.160;14.768;2022-09-27T03:20:27;6.20;;;3.03;;
46875;SDS011;32866;50.160;14.768;2022-09-27T03:22:53;3.30;;;2.42;;
46875;SDS011;32866;50.160;14.768;2022-09-27T03:25:20;4.37;;;3.00;;
46875;SDS011;32866;50.160;14.768;2022-09-27T03:27:45;3.50;;;2.58;;
46875;SDS011;32866;50.160;14.768;2022-09-27T03:30:11;3.45;;;2.30;;
46875;SDS011;32866;50.160;14.768;2022-09-27T03:32:41;2.93;;;1.93;;
46875;SDS011;32866;50.160;14.768;2022-09-27T03:35:07;3.30;;;2.10;;
46875;SDS011;32866;50.160;14.768;2022-09-27T03:37:33;3.67;;;2.70;;
46875;SDS011;32866;50.160;14.768;2022-09-27T03:39:58;3.72;;;2.33;;
46875;SDS011;32866;50.160;14.768;2022-09-27T03:42:23;5.45;;;2.28;;
46875;SDS011;32866;50.160;14.768;2022-09-27T03:44:49;4.32;;;2.33;;
46875;SDS011;32866;50.160;14.768;2022-09-27T03:47:15;3.40;;;2.17;;
46875;SDS011;32866;50.160;14.768;2022-09-27T03:49:40;5.63;;;2.63;;
46875;SDS011;32866;50.160;14.768;2022-09-27T03:52:06;3.60;;;2.53;;
46875;SDS011;32866;50.160;14.768;2022-09-27T03:54:31;3.15;;;2.30;;
46875;SDS011;32866;50.160;14.768;2022-09-27T03:56:57;2.65;;;1.90;;
46875;SDS011;32866;50.160;14.768;2022-09-27T03:59:23;4.25;;;2.63;;
46875;SDS011;32866;50.160;14.768;2022-09-27T04:01:48;2.38;;;2.15;;
46875;SDS011;32866;50.160;14.768;2022-09-27T04:04:13;4.07;;;2.20;;
46875;SDS011;32866;50.160;14.768;2022-09-27T04:06:39;6.85;;;2.45;;
46875;SDS011;32866;50.160;14.768;2022-09-27T04:09:04;3.33;;;2.38;;
46875;SDS011;32866;50.160;14.768;2022-09-27T04:11:30;2.35;;;2.05;;
46875;SDS011;32866;50.160;14.768;2022-09-27T04:13:55;2.85;;;2.42;;
46875;SDS011;32866;50.160;14.768;2022-09-27T04:16:21;7.43;;;2.83;;
46875;SDS011;32866;50.160;14.768;2022-09-27T04:18:47;5.82;;;2.30;;
46875;SDS011;32866;50.160;14.768;2022-09-27T04:21:12;2.75;;;2.20;;
46875;SDS011;32866;50.160;14.768;2022-09-27T04:23:38;3.42;;;1.90;;
46875;SDS011;32866;50.160;14.768;2022-09-27T04:26:03;2.95;;;2.13;;
46875;SDS011;32866;50.160;14.768;2022-09-27T04:28:29;3.33;;;2.20;;
46875;SDS011;32866;50.160;14.768;2022-09-27T04:30:55;3.23;;;2.23;;
46875;SDS011;32866;50.160;14.768;2022-09-27T04:33:21;4.63;;;2.72;;
46875;SDS011;32866;50.160;14.768;2022-09-27T04:35:47;2.70;;;2.27;;
46875;SDS011;32866;50.160;14.768;2022-09-27T04:38:31;4.33;;;2.40;;
46875;SDS011;32866;50.160;14.768;2022-09-27T04:40:57;2.35;;;1.90;;
46875;SDS011;32866;50.160;14.768;2022-09-27T04:43:25;2.93;;;2.43;;
46875;SDS011;32866;50.160;14.768;2022-09-27T04:45:50;2.25;;;1.92;;
46875;SDS011;32866;50.160;14.768;2022-09-27T04:48:16;6.13;;;2.47;;
46875;SDS011;32866;50.160;14.768;2022-09-27T04:50:41;2.45;;;1.92;;
46875;SDS011;32866;50.160;14.768;2022-09-27T04:53:06;2.60;;;1.67;;
46875;SDS011;32866;50.160;14.768;2022-09-27T04:55:32;4.47;;;2.00;;
46875;SDS011;32866;50.160;14.768;2022-09-27T04:57:58;3.10;;;1.80;;
46875;SDS011;32866;50.160;14.768;2022-09-27T05:00:25;1.70;;;1.20;;
46875;SDS011;32866;50.160;14.768;2022-09-27T05:02:52;4.87;;;1.30;;
46875;SDS011;32866;50.160;14.768;2022-09-27T05:05:17;2.00;;;1.25;;
46875;SDS011;32866;50.160;14.768;2022-09-27T05:07:43;1.55;;;1.33;;
46875;SDS011;32866;50.160;14.768;2022-09-27T05:10:08;2.03;;;1.65;;
46875;SDS011;32866;50.160;14.768;2022-09-27T05:12:34;2.97;;;1.77;;
46875;SDS011;32866;50.160;14.768;2022-09-27T05:15:00;2.63;;;1.75;;
46875;SDS011;32866;50.160;14.768;2022-09-27T05:17:25;1.98;;;1.48;;
46875;SDS011;32866;50.160;14.768;2022-09-27T05:19:51;1.73;;;1.55;;
46875;SDS011;32866;50.160;14.768;2022-09-27T05:22:16;14.48;;;2.33;;
46875;SDS011;32866;50.160;14.768;2022-09-27T05:24:43;2.07;;;1.60;;
46875;SDS011;32866;50.160;14.768;2022-09-27T05:27:09;2.63;;;1.67;;
46875;SDS011;32866;50.160;14.768;2022-09-27T05:29:38;2.47;;;1.87;;
46875;SDS011;32866;50.160;14.768;2022-09-27T05:32:03;2.25;;;1.67;;
46875;SDS011;32866;50.160;14.768;2022-09-27T05:34:29;2.40;;;1.48;;
46875;SDS011;32866;50.160;14.768;2022-09-27T05:36:56;2.37;;;1.50;;
46875;SDS011;32866;50.160;14.768;2022-09-27T05:39:22;2.55;;;2.00;;
46875;SDS011;32866;50.160;14.768;2022-09-27T05:41:47;3.08;;;1.88;;
46875;SDS011;32866;50.160;14.768;2022-09-27T05:44:14;4.27;;;2.00;;
46875;SDS011;32866;50.160;14.768;2022-09-27T05:46:40;2.28;;;1.90;;
46875;SDS011;32866;50.160;14.768;2022-09-27T05:49:05;2.45;;;1.45;;
46875;SDS011;32866;50.160;14.768;2022-09-27T05:51:31;2.28;;;2.08;;
46875;SDS011;32866;50.160;14.768;2022-09-27T05:53:56;2.58;;;1.52;;
46875;SDS011;32866;50.160;14.768;2022-09-27T05:56:22;2.38;;;1.67;;
46875;SDS011;32866;50.160;14.768;2022-09-27T05:58:49;2.57;;;2.00;;
46875;SDS011;32866;50.160;14.768;2022-09-27T06:01:14;2.92;;;1.95;;
46875;SDS011;32866;50.160;14.768;2022-09-27T06:03:40;23.67;;;2.30;;
46875;SDS011;32866;50.160;14.768;2022-09-27T06:06:07;2.13;;;1.75;;
46875;SDS011;32866;50.160;14.768;2022-09-27T06:08:35;7.80;;;2.00;;
46875;SDS011;32866;50.160;14.768;2022-09-27T06:11:02;3.67;;;2.00;;
46875;SDS011;32866;50.160;14.768;2022-09-27T06:13:30;2.80;;;1.67;;
46875;SDS011;32866;50.160;14.768;2022-09-27T06:15:57;3.47;;;2.10;;
46875;SDS011;32866;50.160;14.768;2022-09-27T06:18:23;4.13;;;1.60;;
46875;SDS011;32866;50.160;14.768;2022-09-27T06:20:48;3.35;;;1.85;;
46875;SDS011;32866;50.160;14.768;2022-09-27T06:23:15;5.90;;;1.85;;
46875;SDS011;32866;50.160;14.768;2022-09-27T06:25:42;2.87;;;2.13;;
46875;SDS011;32866;50.160;14.768;2022-09-27T06:28:08;2.40;;;1.97;;
46875;SDS011;32866;50.160;14.768;2022-09-27T06:30:37;1.73;;;1.40;;
46875;SDS011;32866;50.160;14.768;2022-09-27T06:33:04;1.83;;;1.60;;
46875;SDS011;32866;50.160;14.768;2022-09-27T06:35:30;1.98;;;1.77;;
46875;SDS011;32866;50.160;14.768;2022-09-27T06:37:55;3.17;;;2.03;;
46875;SDS011;32866;50.160;14.768;2022-09-27T06:40:21;4.30;;;2.15;;
46875;SDS011;32866;50.160;14.768;2022-09-27T06:42:50;4.43;;;2.30;;
46875;SDS011;32866;50.160;14.768;2022-09-27T06:45:16;2.65;;;1.85;;
46875;SDS011;32866;50.160;14.768;2022-09-27T06:47:41;4.30;;;2.30;;
46875;SDS011;32866;50.160;14.768;2022-09-27T06:50:07;2.67;;;2.05;;
46875;SDS011;32866;50.160;14.768;2022-09-27T06:52:33;3.97;;;2.63;;
46875;SDS011;32866;50.160;14.768;2022-09-27T06:57:24;2.63;;;1.40;;
46875;SDS011;32866;50.160;14.768;2022-09-27T07:00:09;4.23;;;2.07;;
46875;SDS011;32866;50.160;14.768;2022-09-27T07:02:47;3.20;;;2.13;;
46875;SDS011;32866;50.160;14.768;2022-09-27T07:07:39;2.10;;;1.60;;
46875;SDS011;32866;50.160;14.768;2022-09-27T07:10:04;1.90;;;1.17;;
46875;SDS011;32866;50.160;14.768;2022-09-27T07:12:30;1.92;;;1.23;;
46875;SDS011;32866;50.160;14.768;2022-09-27T07:14:56;1.25;;;1.15;;
46875;SDS011;32866;50.160;14.768;2022-09-27T07:17:22;5.13;;;1.52;;
46875;SDS011;32866;50.160;14.768;2022-09-27T07:19:47;3.30;;;2.38;;
46875;SDS011;32866;50.160;14.768;2022-09-27T07:22:13;1.73;;;1.20;;
46875;SDS011;32866;50.160;14.768;2022-09-27T07:24:38;2.53;;;1.23;;
46875;SDS011;32866;50.160;14.768;2022-09-27T07:27:04;1.70;;;1.02;;
46875;SDS011;32866;50.160;14.768;2022-09-27T07:31:55;1.57;;;1.17;;
46875;SDS011;32866;50.160;14.768;2022-09-27T07:34:20;1.17;;;1.08;;
46875;SDS011;32866;50.160;14.768;2022-09-27T07:36:46;1.80;;;1.10;;
46875;SDS011;32866;50.160;14.768;2022-09-27T07:39:11;2.90;;;1.35;;
46875;SDS011;32866;50.160;14.768;2022-09-27T07:41:37;1.30;;;1.20;;
46875;SDS011;32866;50.160;14.768;2022-09-27T07:44:04;1.80;;;1.20;;
46875;SDS011;32866;50.160;14.768;2022-09-27T07:46:30;2.40;;;1.13;;
46875;SDS011;32866;50.160;14.768;2022-09-27T07:48:55;1.50;;;1.13;;
46875;SDS011;32866;50.160;14.768;2022-09-27T07:51:21;6.85;;;1.77;;
46875;SDS011;32866;50.160;14.768;2022-09-27T07:53:46;3.63;;;1.98;;
46875;SDS011;32866;50.160;14.768;2022-09-27T07:56:12;3.55;;;1.40;;
46875;SDS011;32866;50.160;14.768;2022-09-27T07:58:37;0.98;;;0.85;;
46875;SDS011;32866;50.160;14.768;2022-09-27T08:01:03;4.15;;;1.27;;
46875;SDS011;32866;50.160;14.768;2022-09-27T08:03:28;2.55;;;1.50;;
46875;SDS011;32866;50.160;14.768;2022-09-27T08:05:53;4.82;;;1.27;;
46875;SDS011;32866;50.160;14.768;2022-09-27T08:08:19;1.67;;;1.10;;
46875;SDS011;32866;50.160;14.768;2022-09-27T08:10:44;2.03;;;1.60;;
46875;SDS011;32866;50.160;14.768;2022-09-27T08:13:13;1.23;;;1.07;;
46875;SDS011;32866;50.160;14.768;2022-09-27T08:15:43;1.43;;;1.33;;
46875;SDS011;32866;50.160;14.768;2022-09-27T08:18:09;1.30;;;1.20;;
46875;SDS011;32866;50.160;14.768;2022-09-27T08:20:34;1.65;;;1.00;;
46875;SDS011;32866;50.160;14.768;2022-09-27T08:23:00;0.80;;;0.80;;
46875;SDS011;32866;50.160;14.768;2022-09-27T08:25:27;1.05;;;0.95;;
46875;SDS011;32866;50.160;14.768;2022-09-27T08:27:58;1.10;;;0.82;;
46875;SDS011;32866;50.160;14.768;2022-09-27T08:30:26;2.00;;;1.00;;
46875;SDS011;32866;50.160;14.768;2022-09-27T08:32:55;3.40;;;1.20;;
46875;SDS011;32866;50.160;14.768;2022-09-27T08:35:24;5.50;;;0.88;;
46875;SDS011;32866;50.160;14.768;2022-09-27T08:37:53;2.00;;;1.00;;
46875;SDS011;32866;50.160;14.768;2022-09-27T08:40:20;0.65;;;0.65;;
46875;SDS011;32866;50.160;14.768;2022-09-27T08:42:59;0.70;;;0.70;;
46875;SDS011;32866;50.160;14.768;2022-09-27T08:45:31;1.08;;;0.65;;
46875;SDS011;32866;50.160;14.768;2022-09-27T08:48:01;1.80;;;1.00;;
46875;SDS011;32866;50.160;14.768;2022-09-27T08:50:34;1.33;;;0.75;;
46875;SDS011;32866;50.160;14.768;2022-09-27T08:58:12;1.13;;;0.80;;
46875;SDS011;32866;50.160;14.768;2022-09-27T09:00:52;0.82;;;0.45;;
46875;SDS011;32866;50.160;14.768;2022-09-27T09:03:21;0.90;;;0.60;;
46875;SDS011;32866;50.160;14.768;2022-09-27T09:11:59;0.65;;;0.63;;
46875;SDS011;32866;50.160;14.768;2022-09-27T09:14:54;7.63;;;1.10;;
46875;SDS011;32866;50.160;14.768;2022-09-27T09:20:35;6.32;;;0.90;;
46875;SDS011;32866;50.160;14.768;2022-09-27T09:25:44;0.93;;;0.70;;
46875;SDS011;32866;50.160;14.768;2022-09-27T09:38:40;0.52;;;0.52;;
46875;SDS011;32866;50.160;14.768;2022-09-27T09:46:38;1.27;;;0.68;;
46875;SDS011;32866;50.160;14.768;2022-09-27T09:51:43;1.17;;;0.90;;
46875;SDS011;32866;50.160;14.768;2022-09-27T09:54:26;2.17;;;0.90;;
46875;SDS011;32866;50.160;14.768;2022-09-27T09:59:33;1.02;;;0.95;;
46875;SDS011;32866;50.160;14.768;2022-09-27T10:02:39;1.33;;;0.88;;
46875;SDS011;32866;50.160;14.768;2022-09-27T10:05:02;1.17;;;0.90;;
46875;SDS011;32866;50.160;14.768;2022-09-27T10:07:29;1.35;;;0.98;;
46875;SDS011;32866;50.160;14.768;2022-09-27T10:10:00;1.88;;;1.33;;
46875;SDS011;32866;50.160;14.768;2022-09-27T10:12:28;1.88;;;1.08;;
46875;SDS011;32866;50.160;14.768;2022-09-27T10:14:55;3.60;;;1.23;;
46875;SDS011;32866;50.160;14.768;2022-09-27T10:17:24;1.35;;;1.08;;
46875;SDS011;32866;50.160;14.768;2022-09-27T10:19:59;1.30;;;1.00;;
46875;SDS011;32866;50.160;14.768;2022-09-27T10:22:27;1.40;;;1.10;;
46875;SDS011;32866;50.160;14.768;2022-09-27T10:25:06;1.80;;;1.10;;
46875;SDS011;32866;50.160;14.768;2022-09-27T10:27:51;1.65;;;0.75;;
46875;SDS011;32866;50.160;14.768;2022-09-27T10:30:21;3.10;;;0.90;;
46875;SDS011;32866;50.160;14.768;2022-09-27T10:32:50;0.77;;;0.77;;
46875;SDS011;32866;50.160;14.768;2022-09-27T10:35:28;1.80;;;1.02;;
46875;SDS011;32866;50.160;14.768;2022-09-27T10:40:41;1.70;;;0.63;;
46875;SDS011;32866;50.160;14.768;2022-09-27T10:43:49;0.50;;;0.50;;
46875;SDS011;32866;50.160;14.768;2022-09-27T10:48:46;1.00;;;0.63;;
46875;SDS011;32866;50.160;14.768;2022-09-27T10:51:21;2.05;;;1.00;;
46875;SDS011;32866;50.160;14.768;2022-09-27T10:53:54;1.50;;;1.33;;
46875;SDS011;32866;50.160;14.768;2022-09-27T10:56:30;1.05;;;0.50;;
46875;SDS011;32866;50.160;14.768;2022-09-27T10:58:58;0.40;;;0.40;;
46875;SDS011;32866;50.160;14.768;2022-09-27T11:01:24;0.55;;;0.32;;
46875;SDS011;32866;50.160;14.768;2022-09-27T11:03:55;0.75;;;0.47;;
46875;SDS011;32866;50.160;14.768;2022-09-27T11:08:52;1.80;;;0.60;;
46875;SDS011;32866;50.160;14.768;2022-09-27T11:11:23;0.20;;;0.20;;
46875;SDS011;32866;50.160;14.768;2022-09-27T11:13:57;0.20;;;0.20;;
46875;SDS011;32866;50.160;14.768;2022-09-27T11:19:17;0.45;;;0.35;;
46875;SDS011;32866;50.160;14.768;2022-09-27T11:27:47;0.63;;;0.43;;
46875;SDS011;32866;50.160;14.768;2022-09-27T11:30:24;0.47;;;0.30;;
46875;SDS011;32866;50.160;14.768;2022-09-27T11:55:03;0.30;;;0.30;;
46875;SDS011;32866;50.160;14.768;2022-09-27T11:57:32;1.10;;;0.52;;
46875;SDS011;32866;50.160;14.768;2022-09-27T12:08:04;4.90;;;0.63;;
46875;SDS011;32866;50.160;14.768;2022-09-27T12:10:38;2.03;;;0.63;;
46875;SDS011;32866;50.160;14.768;2022-09-27T12:13:09;0.70;;;0.30;;
46875;SDS011;32866;50.160;14.768;2022-09-27T12:15:39;1.55;;;0.40;;
46875;SDS011;32866;50.160;14.768;2022-09-27T12:20:52;2.17;;;0.52;;
46875;SDS011;32866;50.160;14.768;2022-09-27T12:23:25;1.52;;;0.40;;
46875;SDS011;32866;50.160;14.768;2022-09-27T12:26:26;3.22;;;0.60;;
46875;SDS011;32866;50.160;14.768;2022-09-27T12:28:59;0.70;;;0.52;;
46875;SDS011;32866;50.160;14.768;2022-09-27T12:31:32;2.08;;;0.75;;
46875;SDS011;32866;50.160;14.768;2022-09-27T12:36:55;0.35;;;0.35;;
46875;SDS011;32866;50.160;14.768;2022-09-27T12:39:39;1.75;;;0.47;;
46875;SDS011;32866;50.160;14.768;2022-09-27T12:42:19;0.50;;;0.40;;
46875;SDS011;32866;50.160;14.768;2022-09-27T12:44:48;0.68;;;0.40;;
46875;SDS011;32866;50.160;14.768;2022-09-27T12:47:31;0.63;;;0.32;;
46875;SDS011;32866;50.160;14.768;2022-09-27T12:50:17;1.10;;;0.45;;
46875;SDS011;32866;50.160;14.768;2022-09-27T12:52:50;0.60;;;0.60;;
46875;SDS011;32866;50.160;14.768;2022-09-27T12:55:29;9.52;;;0.88;;
46875;SDS011;32866;50.160;14.768;2022-09-27T13:00:38;0.80;;;0.60;;
46875;SDS011;32866;50.160;14.768;2022-09-27T13:05:40;0.50;;;0.50;;
46875;SDS011;32866;50.160;14.768;2022-09-27T13:14:27;1.70;;;0.40;;
46875;SDS011;32866;50.160;14.768;2022-09-27T13:16:57;1.23;;;0.50;;
46875;SDS011;32866;50.160;14.768;2022-09-27T13:22:03;0.55;;;0.30;;
46875;SDS011;32866;50.160;14.768;2022-09-27T13:27:48;0.52;;;0.50;;
46875;SDS011;32866;50.160;14.768;2022-09-27T13:29:51;3.38;;;0.40;;
46875;SDS011;32866;50.160;14.768;2022-09-27T13:32:36;0.47;;;0.38;;
46875;SDS011;32866;50.160;14.768;2022-09-27T13:35:22;0.43;;;0.43;;
46875;SDS011;32866;50.160;14.768;2022-09-27T13:37:58;1.00;;;0.40;;
46875;SDS011;32866;50.160;14.768;2022-09-27T13:40:25;2.58;;;0.70;;
46875;SDS011;32866;50.160;14.768;2022-09-27T13:45:35;0.50;;;0.40;;
46875;SDS011;32866;50.160;14.768;2022-09-27T13:48:13;0.70;;;0.68;;
46875;SDS011;32866;50.160;14.768;2022-09-27T13:50:46;0.20;;;0.20;;
46875;SDS011;32866;50.160;14.768;2022-09-27T13:56:02;0.30;;;0.30;;
46875;SDS011;32866;50.160;14.768;2022-09-27T14:01:15;1.00;;;0.40;;
46875;SDS011;32866;50.160;14.768;2022-09-27T14:03:51;0.60;;;0.60;;
46875;SDS011;32866;50.160;14.768;2022-09-27T14:06:21;3.47;;;1.00;;
46875;SDS011;32866;50.160;14.768;2022-09-27T14:08:51;1.92;;;1.60;;
46875;SDS011;32866;50.160;14.768;2022-09-27T14:11:56;2.83;;;0.98;;
46875;SDS011;32866;50.160;14.768;2022-09-27T14:14:17;1.65;;;0.40;;
46875;SDS011;32866;50.160;14.768;2022-09-27T14:16:46;0.40;;;0.40;;
46875;SDS011;32866;50.160;14.768;2022-09-27T14:19:16;1.52;;;0.43;;
46875;SDS011;32866;50.160;14.768;2022-09-27T14:24:31;0.43;;;0.30;;
46875;SDS011;32866;50.160;14.768;2022-09-27T14:29:47;0.32;;;0.32;;
46875;SDS011;32866;50.160;14.768;2022-09-27T14:32:18;3.53;;;0.50;;
46875;SDS011;32866;50.160;14.768;2022-09-27T14:34:46;0.20;;;0.20;;
46875;SDS011;32866;50.160;14.768;2022-09-27T14:37:31;0.30;;;0.30;;
46875;SDS011;32866;50.160;14.768;2022-09-27T14:40:05;0.57;;;0.40;;
46875;SDS011;32866;50.160;14.768;2022-09-27T14:42:43;0.57;;;0.40;;
46875;SDS011;32866;50.160;14.768;2022-09-27T14:45:19;0.28;;;0.20;;
46875;SDS011;32866;50.160;14.768;2022-09-27T14:47:49;0.30;;;0.30;;
46875;SDS011;32866;50.160;14.768;2022-09-27T14:50:20;0.32;;;0.22;;
46875;SDS011;32866;50.160;14.768;2022-09-27T14:52:48;0.30;;;0.30;;
46875;SDS011;32866;50.160;14.768;2022-09-27T14:55:19;1.38;;;1.00;;
46875;SDS011;32866;50.160;14.768;2022-09-27T14:57:46;0.50;;;0.50;;
46875;SDS011;32866;50.160;14.768;2022-09-27T15:00:19;0.40;;;0.40;;
46875;SDS011;32866;50.160;14.768;2022-09-27T15:02:56;0.40;;;0.30;;
46875;SDS011;32866;50.160;14.768;2022-09-27T15:05:28;0.20;;;0.20;;
46875;SDS011;32866;50.160;14.768;2022-09-27T15:07:56;0.50;;;0.50;;
46875;SDS011;32866;50.160;14.768;2022-09-27T15:10:25;0.40;;;0.40;;
46875;SDS011;32866;50.160;14.768;2022-09-27T15:12:52;0.73;;;0.60;;
46875;SDS011;32866;50.160;14.768;2022-09-27T15:15:22;0.88;;;0.60;;
46875;SDS011;32866;50.160;14.768;2022-09-27T15:17:50;1.00;;;0.77;;
46875;SDS011;32866;50.160;14.768;2022-09-27T15:22:55;0.98;;;0.77;;
46875;SDS011;32866;50.160;14.768;2022-09-27T15:26:26;0.50;;;0.50;;
46875;SDS011;32866;50.160;14.768;2022-09-27T15:28:46;1.27;;;1.00;;
46875;SDS011;32866;50.160;14.768;2022-09-27T15:31:14;0.57;;;0.55;;
46875;SDS011;32866;50.160;14.768;2022-09-27T15:36:09;0.43;;;0.43;;
46875;SDS011;32866;50.160;14.768;2022-09-27T15:38:39;0.40;;;0.40;;
46875;SDS011;32866;50.160;14.768;2022-09-27T15:43:46;0.97;;;0.80;;
46875;SDS011;32866;50.160;14.768;2022-09-27T15:46:33;1.03;;;0.70;;
46875;SDS011;32866;50.160;14.768;2022-09-27T15:51:41;0.37;;;0.37;;
46875;SDS011;32866;50.160;14.768;2022-09-27T15:54:11;1.00;;;0.50;;
46875;SDS011;32866;50.160;14.768;2022-09-27T15:56:40;0.63;;;0.63;;
46875;SDS011;32866;50.160;14.768;2022-09-27T15:59:10;0.57;;;0.57;;
46875;SDS011;32866;50.160;14.768;2022-09-27T16:01:42;2.58;;;1.08;;
46875;SDS011;32866;50.160;14.768;2022-09-27T16:04:07;2.58;;;0.80;;
46875;SDS011;32866;50.160;14.768;2022-09-27T16:06:33;1.48;;;1.30;;
46875;SDS011;32866;50.160;14.768;2022-09-27T16:08:58;1.85;;;1.25;;
46875;SDS011;32866;50.160;14.768;2022-09-27T16:11:24;1.20;;;0.90;;
46875;SDS011;32866;50.160;14.768;2022-09-27T16:13:49;0.85;;;0.65;;
46875;SDS011;32866;50.160;14.768;2022-09-27T16:16:17;1.87;;;0.97;;
46875;SDS011;32866;50.160;14.768;2022-09-27T16:18:44;1.27;;;0.73;;
46875;SDS011;32866;50.160;14.768;2022-09-27T16:21:10;3.97;;;1.80;;
46875;SDS011;32866;50.160;14.768;2022-09-27T16:23:35;1.33;;;0.90;;
46875;SDS011;32866;50.160;14.768;2022-09-27T16:26:00;1.20;;;0.88;;
46875;SDS011;32866;50.160;14.768;2022-09-27T16:28:26;2.22;;;1.38;;
46875;SDS011;32866;50.160;14.768;2022-09-27T16:30:51;1.25;;;1.02;;
46875;SDS011;32866;50.160;14.768;2022-09-27T16:33:16;2.85;;;1.20;;
46875;SDS011;32866;50.160;14.768;2022-09-27T16:35:42;2.40;;;1.45;;
46875;SDS011;32866;50.160;14.768;2022-09-27T16:38:08;4.40;;;2.58;;
46875;SDS011;32866;50.160;14.768;2022-09-27T16:40:34;2.00;;;1.15;;
46875;SDS011;32866;50.160;14.768;2022-09-27T16:43:00;1.33;;;1.13;;
46875;SDS011;32866;50.160;14.768;2022-09-27T16:45:31;0.67;;;0.67;;
46875;SDS011;32866;50.160;14.768;2022-09-27T16:48:00;1.43;;;0.73;;
46875;SDS011;32866;50.160;14.768;2022-09-27T16:50:25;1.85;;;1.55;;
46875;SDS011;32866;50.160;14.768;2022-09-27T16:53:09;2.93;;;1.27;;
46875;SDS011;32866;50.160;14.768;2022-09-27T16:58:01;2.33;;;1.20;;
46875;SDS011;32866;50.160;14.768;2022-09-27T17:00:29;1.07;;;0.97;;
46875;SDS011;32866;50.160;14.768;2022-09-27T17:02:57;3.60;;;1.37;;
46875;SDS011;32866;50.160;14.768;2022-09-27T17:05:22;5.53;;;1.80;;
46875;SDS011;32866;50.160;14.768;2022-09-27T17:07:51;2.30;;;1.60;;
46875;SDS011;32866;50.160;14.768;2022-09-27T17:10:20;1.53;;;1.07;;
46875;SDS011;32866;50.160;14.768;2022-09-27T17:12:46;2.33;;;1.43;;
46875;SDS011;32866;50.160;14.768;2022-09-27T17:15:12;2.40;;;1.70;;
46875;SDS011;32866;50.160;14.768;2022-09-27T17:17:38;3.45;;;1.67;;
46875;SDS011;32866;50.160;14.768;2022-09-27T17:20:03;1.85;;;1.35;;
46875;SDS011;32866;50.160;14.768;2022-09-27T17:22:29;3.75;;;1.40;;
46875;SDS011;32866;50.160;14.768;2022-09-27T17:24:55;3.67;;;2.13;;
46875;SDS011;32866;50.160;14.768;2022-09-27T17:27:21;1.73;;;1.27;;
46875;SDS011;32866;50.160;14.768;2022-09-27T17:29:46;1.88;;;1.30;;
46875;SDS011;32866;50.160;14.768;2022-09-27T17:32:11;2.60;;;1.60;;
46875;SDS011;32866;50.160;14.768;2022-09-27T17:34:37;2.25;;;1.38;;
46875;SDS011;32866;50.160;14.768;2022-09-27T17:37:08;13.67;;;6.37;;
46875;SDS011;32866;50.160;14.768;2022-09-27T17:39:35;30.40;;;15.57;;
46875;SDS011;32866;50.160;14.768;2022-09-27T17:42:00;33.33;;;17.45;;
46875;SDS011;32866;50.160;14.768;2022-09-27T17:44:26;26.50;;;14.13;;
46875;SDS011;32866;50.160;14.768;2022-09-27T17:46:52;18.98;;;10.68;;
46875;SDS011;32866;50.160;14.768;2022-09-27T17:49:37;9.97;;;4.50;;
46875;SDS011;32866;50.160;14.768;2022-09-27T17:52:21;10.10;;;5.17;;
46875;SDS011;32866;50.160;14.768;2022-09-27T17:54:49;6.83;;;3.80;;
46875;SDS011;32866;50.160;14.768;2022-09-27T17:57:17;4.57;;;2.60;;
46875;SDS011;32866;50.160;14.768;2022-09-27T17:59:42;4.18;;;2.78;;
46875;SDS011;32866;50.160;14.768;2022-09-27T18:02:08;5.35;;;3.22;;